createdAt,value
2023-02-02T00:01:11.660Z,7.73
2023-02-02T00:11:15.907Z,7.69
2023-02-02T00:21:20.240Z,7.67
2023-02-02T00:31:23.444Z,7.65
2023-02-02T00:41:27.762Z,7.75
2023-02-02T00:51:30.561Z,7.72
2023-02-02T01:01:35.488Z,7.68
2023-02-02T01:11:38.549Z,7.68
2023-02-02T01:21:42.976Z,7.76
2023-02-02T01:31:46.563Z,7.77
2023-02-02T01:41:51.262Z,7.78
2023-02-02T01:51:57.874Z,7.70
2023-02-02T02:02:03.768Z,7.72
2023-02-02T02:12:13.558Z,7.64
2023-02-02T02:22:39.136Z,7.69
2023-02-02T02:32:48.537Z,7.64
2023-02-02T02:42:58.730Z,7.50
2023-02-02T02:53:07.011Z,7.78
2023-02-02T03:03:18.155Z,7.63
2023-02-02T03:13:22.590Z,7.76
2023-02-02T03:23:25.803Z,7.69
2023-02-02T03:33:32.032Z,7.67
2023-02-02T03:43:35.144Z,7.78
2023-02-02T03:53:39.504Z,7.62
2023-02-02T04:03:42.585Z,7.56
2023-02-02T04:13:46.945Z,7.54
2023-02-02T04:23:49.926Z,7.53
2023-02-02T04:33:54.851Z,7.48
2023-02-02T04:43:57.828Z,7.60
2023-02-02T04:54:02.285Z,7.54
2023-02-02T05:04:05.585Z,7.50
2023-02-02T05:14:10.036Z,7.51
2023-02-02T05:24:13.509Z,7.39
2023-02-02T05:34:17.845Z,7.45
2023-02-02T05:44:21.004Z,7.46
2023-02-02T05:54:26.350Z,7.56
2023-02-02T06:04:29.736Z,7.44
2023-02-02T06:14:34.059Z,7.48
2023-02-02T06:24:36.843Z,7.41
2023-02-02T06:34:41.040Z,7.60
2023-02-02T06:44:43.817Z,7.56
2023-02-02T06:54:47.944Z,7.54
2023-02-02T07:04:50.895Z,7.63
2023-02-02T07:14:56.407Z,7.64
2023-02-02T07:25:02.949Z,7.68
2023-02-02T07:35:08.954Z,7.72
2023-02-02T07:45:36.223Z,7.65
2023-02-02T07:55:37.688Z,7.71
2023-02-02T08:05:40.709Z,7.65
2023-02-02T08:15:45.685Z,7.67
2023-02-02T08:25:48.778Z,7.63
2023-02-02T08:35:53.108Z,7.58
2023-02-02T08:46:01.634Z,7.69
2023-02-02T08:56:12.191Z,7.58
2023-02-02T09:06:17.845Z,7.53
2023-02-02T09:16:23.303Z,7.67
2023-02-02T09:26:28.192Z,7.68
2023-02-02T09:36:33.611Z,7.85
2023-02-02T09:46:48.730Z,7.85
2023-02-02T09:56:58.051Z,8.04
2023-02-02T10:07:08.783Z,8.27
2023-02-02T10:17:33.044Z,8.34
2023-02-02T10:27:39.406Z,8.41
2023-02-02T10:37:51.466Z,8.32
2023-02-02T10:47:54.358Z,8.26
2023-02-02T10:58:09.716Z,8.28
2023-02-02T11:08:15.398Z,8.38
2023-02-02T11:18:30.224Z,8.52
2023-02-02T11:28:37.294Z,8.60
2023-02-02T11:38:41.984Z,8.52
2023-02-02T11:48:52.026Z,8.55
2023-02-02T11:58:59.253Z,8.49
2023-02-02T12:09:08.362Z,8.59
2023-02-02T12:19:31.053Z,8.72
2023-02-02T12:29:52.978Z,8.85
2023-02-02T12:40:15.640Z,8.99
2023-02-02T12:50:29.917Z,9.38
2023-02-02T13:00:53.662Z,9.11
2023-02-02T13:11:04.917Z,8.77
2023-02-02T13:21:15.288Z,8.91
2023-02-02T13:31:24.528Z,8.92
2023-02-02T13:41:30.757Z,8.93
2023-02-02T13:51:54.892Z,9.03
2023-02-02T14:02:00.703Z,8.99
2023-02-02T14:12:07.990Z,9.06
2023-02-02T14:22:40.665Z,9.09
2023-02-02T14:32:44.083Z,9.17
2023-02-02T14:43:17.569Z,9.17
2023-02-02T14:53:26.177Z,9.21
2023-02-02T15:03:53.960Z,9.20
2023-02-02T15:14:07.455Z,9.28
2023-02-02T15:24:26.124Z,9.29
2023-02-02T15:34:38.950Z,9.32
2023-02-02T15:44:44.136Z,9.25
2023-02-02T15:54:53.339Z,9.26
2023-02-02T16:04:57.921Z,9.54
2023-02-02T16:15:01.504Z,9.29
2023-02-02T16:25:14.268Z,9.24
2023-02-02T16:35:34.719Z,9.29
2023-02-02T16:45:48.057Z,9.29
2023-02-02T16:55:51.974Z,9.26
2023-02-02T17:05:58.746Z,9.11
2023-02-02T17:16:02.853Z,9.20
2023-02-02T17:26:36.215Z,9.21
2023-02-02T17:36:40.783Z,9.17
2023-02-02T17:46:45.435Z,9.09
2023-02-02T17:56:48.633Z,9.12
2023-02-02T18:07:18.202Z,9.05
2023-02-02T18:17:21.399Z,9.07
2023-02-02T18:27:26.393Z,9.02
2023-02-02T18:37:31.723Z,8.99
2023-02-02T18:47:36.102Z,9.17
2023-02-02T18:57:39.251Z,9.19
2023-02-02T19:07:56.813Z,9.21
2023-02-02T19:18:00.103Z,9.04
2023-02-02T19:28:15.254Z,9.11
2023-02-02T19:38:20.855Z,9.08
2023-02-02T19:48:27.354Z,9.09
2023-02-02T19:58:37.568Z,9.08
2023-02-02T20:08:44.474Z,9.08
2023-02-02T20:18:53.987Z,9.86
2023-02-02T20:29:00.274Z,9.21
2023-02-02T20:39:24.013Z,9.22
2023-02-02T20:49:29.260Z,9.19
2023-02-02T20:59:33.007Z,9.14
2023-02-02T21:09:37.636Z,9.11
2023-02-02T21:19:40.774Z,9.15
2023-02-02T21:29:45.293Z,9.21
2023-02-02T21:39:51.221Z,9.21
2023-02-02T21:49:57.961Z,9.12
2023-02-02T22:00:01.966Z,9.13
2023-02-02T22:10:30.220Z,9.04
2023-02-02T22:20:36.725Z,8.98
2023-02-02T22:30:42.482Z,8.86
2023-02-02T22:41:10.035Z,8.98
2023-02-02T22:51:14.942Z,8.89
2023-02-02T23:01:18.200Z,8.86
2023-02-02T23:11:22.710Z,8.85
2023-02-02T23:21:26.029Z,8.92
2023-02-02T23:31:30.645Z,8.95
2023-02-02T23:41:33.777Z,8.93
2023-02-02T23:51:38.890Z,8.96
